sensor_id;sensor_type;location;lat;lon;timestamp;P1;durP1;ratioP1;P2;durP2;ratioP2
27999;SDS011;15328;50.860;10.562;2022-11-20T00:02:09;12.52;;;6.28;;
27999;SDS011;15328;50.860;10.562;2022-11-20T00:07:15;10.38;;;4.85;;
27999;SDS011;15328;50.860;10.562;2022-11-20T00:12:16;10.85;;;5.50;;
27999;SDS011;15328;50.860;10.562;2022-11-20T00:17:16;9.88;;;5.90;;
27999;SDS011;15328;50.860;10.562;2022-11-20T00:27:55;11.05;;;5.88;;
27999;SDS011;15328;50.860;10.562;2022-11-20T00:32:56;12.25;;;5.55;;
27999;SDS011;15328;50.860;10.562;2022-11-20T00:38:00;11.55;;;5.90;;
27999;SDS011;15328;50.860;10.562;2022-11-20T00:43:11;15.55;;;7.28;;
27999;SDS011;15328;50.860;10.562;2022-11-20T00:48:42;17.88;;;9.10;;
27999;SDS011;15328;50.860;10.562;2022-11-20T00:53:43;10.30;;;5.50;;
27999;SDS011;15328;50.860;10.562;2022-11-20T00:58:44;8.95;;;4.95;;
27999;SDS011;15328;50.860;10.562;2022-11-20T01:03:47;8.68;;;4.90;;
27999;SDS011;15328;50.860;10.562;2022-11-20T01:08:50;9.15;;;4.70;;
27999;SDS011;15328;50.860;10.562;2022-11-20T01:13:52;8.43;;;4.40;;
27999;SDS011;15328;50.860;10.562;2022-11-20T01:18:56;9.90;;;5.15;;
27999;SDS011;15328;50.860;10.562;2022-11-20T01:23:58;9.32;;;4.85;;
27999;SDS011;15328;50.860;10.562;2022-11-20T01:28:59;10.38;;;5.18;;
27999;SDS011;15328;50.860;10.562;2022-11-20T01:34:02;10.10;;;5.13;;
27999;SDS011;15328;50.860;10.562;2022-11-20T01:39:05;11.50;;;5.93;;
27999;SDS011;15328;50.860;10.562;2022-11-20T01:44:09;12.60;;;6.10;;
27999;SDS011;15328;50.860;10.562;2022-11-20T01:49:16;12.35;;;6.28;;
27999;SDS011;15328;50.860;10.562;2022-11-20T01:54:22;12.23;;;6.55;;
27999;SDS011;15328;50.860;10.562;2022-11-20T01:59:26;14.82;;;7.60;;
27999;SDS011;15328;50.860;10.562;2022-11-20T02:04:29;19.33;;;8.68;;
27999;SDS011;15328;50.860;10.562;2022-11-20T02:09:29;20.08;;;9.32;;
27999;SDS011;15328;50.860;10.562;2022-11-20T02:14:29;21.77;;;9.65;;
27999;SDS011;15328;50.860;10.562;2022-11-20T02:19:30;25.20;;;11.35;;
27999;SDS011;15328;50.860;10.562;2022-11-20T02:24:31;24.05;;;10.85;;
27999;SDS011;15328;50.860;10.562;2022-11-20T02:29:39;17.95;;;9.07;;
27999;SDS011;15328;50.860;10.562;2022-11-20T02:34:43;18.58;;;8.95;;
27999;SDS011;15328;50.860;10.562;2022-11-20T02:39:44;18.58;;;8.68;;
27999;SDS011;15328;50.860;10.562;2022-11-20T02:44:47;14.50;;;6.80;;
27999;SDS011;15328;50.860;10.562;2022-11-20T02:49:47;15.75;;;7.75;;
27999;SDS011;15328;50.860;10.562;2022-11-20T02:54:48;15.93;;;7.22;;
27999;SDS011;15328;50.860;10.562;2022-11-20T02:59:48;13.10;;;6.47;;
27999;SDS011;15328;50.860;10.562;2022-11-20T03:04:48;17.38;;;7.53;;
27999;SDS011;15328;50.860;10.562;2022-11-20T03:09:49;16.17;;;8.02;;
27999;SDS011;15328;50.860;10.562;2022-11-20T03:14:49;14.80;;;7.25;;
27999;SDS011;15328;50.860;10.562;2022-11-20T03:19:49;14.07;;;6.97;;
27999;SDS011;15328;50.860;10.562;2022-11-20T03:24:50;15.18;;;7.95;;
27999;SDS011;15328;50.860;10.562;2022-11-20T03:29:51;17.38;;;7.68;;
27999;SDS011;15328;50.860;10.562;2022-11-20T03:34:51;18.40;;;8.85;;
27999;SDS011;15328;50.860;10.562;2022-11-20T03:39:51;18.77;;;8.95;;
27999;SDS011;15328;50.860;10.562;2022-11-20T03:44:52;18.20;;;8.20;;
27999;SDS011;15328;50.860;10.562;2022-11-20T03:49:52;16.10;;;8.40;;
27999;SDS011;15328;50.860;10.562;2022-11-20T03:54:52;17.17;;;8.75;;
27999;SDS011;15328;50.860;10.562;2022-11-20T03:59:53;19.05;;;8.73;;
27999;SDS011;15328;50.860;10.562;2022-11-20T04:04:53;17.73;;;8.83;;
27999;SDS011;15328;50.860;10.562;2022-11-20T04:09:53;17.48;;;8.88;;
27999;SDS011;15328;50.860;10.562;2022-11-20T04:14:54;16.35;;;8.23;;
27999;SDS011;15328;50.860;10.562;2022-11-20T04:19:54;14.82;;;7.55;;
27999;SDS011;15328;50.860;10.562;2022-11-20T04:24:54;16.58;;;8.32;;
27999;SDS011;15328;50.860;10.562;2022-11-20T04:29:54;15.63;;;7.90;;
27999;SDS011;15328;50.860;10.562;2022-11-20T04:34:55;12.60;;;6.90;;
27999;SDS011;15328;50.860;10.562;2022-11-20T04:39:55;14.38;;;6.72;;
27999;SDS011;15328;50.860;10.562;2022-11-20T04:44:56;15.18;;;7.13;;
27999;SDS011;15328;50.860;10.562;2022-11-20T04:49:57;15.13;;;7.88;;
27999;SDS011;15328;50.860;10.562;2022-11-20T04:54:57;14.85;;;7.72;;
27999;SDS011;15328;50.860;10.562;2022-11-20T04:59:57;15.45;;;7.53;;
27999;SDS011;15328;50.860;10.562;2022-11-20T05:04:58;15.07;;;7.57;;
27999;SDS011;15328;50.860;10.562;2022-11-20T05:09:58;13.90;;;6.95;;
27999;SDS011;15328;50.860;10.562;2022-11-20T05:14:58;14.68;;;7.63;;
27999;SDS011;15328;50.860;10.562;2022-11-20T05:19:58;13.53;;;7.10;;
27999;SDS011;15328;50.860;10.562;2022-11-20T05:24:59;15.63;;;7.45;;
27999;SDS011;15328;50.860;10.562;2022-11-20T05:29:59;16.67;;;7.47;;
27999;SDS011;15328;50.860;10.562;2022-11-20T05:34:59;14.35;;;7.78;;
27999;SDS011;15328;50.860;10.562;2022-11-20T05:40:00;13.98;;;7.25;;
27999;SDS011;15328;50.860;10.562;2022-11-20T05:45:01;16.27;;;7.90;;
27999;SDS011;15328;50.860;10.562;2022-11-20T05:50:03;16.50;;;8.07;;
27999;SDS011;15328;50.860;10.562;2022-11-20T05:55:03;15.88;;;7.90;;
27999;SDS011;15328;50.860;10.562;2022-11-20T06:00:04;12.70;;;7.20;;
27999;SDS011;15328;50.860;10.562;2022-11-20T06:05:05;14.85;;;8.38;;
27999;SDS011;15328;50.860;10.562;2022-11-20T06:10:06;13.32;;;7.40;;
27999;SDS011;15328;50.860;10.562;2022-11-20T06:15:06;21.25;;;9.30;;
27999;SDS011;15328;50.860;10.562;2022-11-20T06:20:07;18.45;;;9.73;;
27999;SDS011;15328;50.860;10.562;2022-11-20T06:25:08;20.50;;;10.50;;
27999;SDS011;15328;50.860;10.562;2022-11-20T06:30:10;23.60;;;11.32;;
27999;SDS011;15328;50.860;10.562;2022-11-20T06:35:11;22.15;;;10.77;;
27999;SDS011;15328;50.860;10.562;2022-11-20T06:40:11;24.73;;;11.30;;
27999;SDS011;15328;50.860;10.562;2022-11-20T06:45:12;19.73;;;9.02;;
27999;SDS011;15328;50.860;10.562;2022-11-20T06:50:12;20.25;;;9.20;;
27999;SDS011;15328;50.860;10.562;2022-11-20T06:55:13;21.40;;;10.55;;
27999;SDS011;15328;50.860;10.562;2022-11-20T07:00:16;22.83;;;11.50;;
27999;SDS011;15328;50.860;10.562;2022-11-20T07:05:17;24.08;;;10.80;;
27999;SDS011;15328;50.860;10.562;2022-11-20T07:10:20;20.58;;;9.77;;
27999;SDS011;15328;50.860;10.562;2022-11-20T07:15:21;20.48;;;10.30;;
27999;SDS011;15328;50.860;10.562;2022-11-20T07:20:23;23.63;;;12.40;;
27999;SDS011;15328;50.860;10.562;2022-11-20T07:25:27;29.73;;;15.77;;
27999;SDS011;15328;50.860;10.562;2022-11-20T07:30:28;33.22;;;17.23;;
27999;SDS011;15328;50.860;10.562;2022-11-20T07:35:39;35.47;;;16.90;;
27999;SDS011;15328;50.860;10.562;2022-11-20T07:40:42;29.20;;;14.10;;
27999;SDS011;15328;50.860;10.562;2022-11-20T07:45:49;29.05;;;14.98;;
27999;SDS011;15328;50.860;10.562;2022-11-20T07:51:20;21.33;;;10.27;;
27999;SDS011;15328;50.860;10.562;2022-11-20T07:56:47;20.67;;;10.70;;
27999;SDS011;15328;50.860;10.562;2022-11-20T08:02:05;20.00;;;10.32;;
27999;SDS011;15328;50.860;10.562;2022-11-20T08:07:05;18.70;;;10.77;;
27999;SDS011;15328;50.860;10.562;2022-11-20T08:12:06;24.23;;;12.93;;
27999;SDS011;15328;50.860;10.562;2022-11-20T08:17:24;18.10;;;10.35;;
27999;SDS011;15328;50.860;10.562;2022-11-20T08:22:25;16.73;;;8.77;;
27999;SDS011;15328;50.860;10.562;2022-11-20T08:27:25;17.08;;;8.82;;
27999;SDS011;15328;50.860;10.562;2022-11-20T08:32:26;11.75;;;7.18;;
27999;SDS011;15328;50.860;10.562;2022-11-20T08:37:27;11.48;;;6.32;;
27999;SDS011;15328;50.860;10.562;2022-11-20T08:42:30;14.27;;;7.93;;
27999;SDS011;15328;50.860;10.562;2022-11-20T08:47:31;15.15;;;7.80;;
27999;SDS011;15328;50.860;10.562;2022-11-20T08:52:32;16.50;;;8.10;;
27999;SDS011;15328;50.860;10.562;2022-11-20T08:57:42;15.10;;;7.68;;
27999;SDS011;15328;50.860;10.562;2022-11-20T09:02:44;13.27;;;7.65;;
27999;SDS011;15328;50.860;10.562;2022-11-20T09:07:45;13.20;;;6.88;;
27999;SDS011;15328;50.860;10.562;2022-11-20T09:12:48;14.57;;;7.78;;
27999;SDS011;15328;50.860;10.562;2022-11-20T09:17:55;13.30;;;7.43;;
27999;SDS011;15328;50.860;10.562;2022-11-20T09:23:00;13.50;;;7.78;;
27999;SDS011;15328;50.860;10.562;2022-11-20T09:28:00;20.10;;;11.30;;
27999;SDS011;15328;50.860;10.562;2022-11-20T09:33:01;29.73;;;16.15;;
27999;SDS011;15328;50.860;10.562;2022-11-20T09:38:07;17.75;;;10.15;;
27999;SDS011;15328;50.860;10.562;2022-11-20T09:59:14;18.35;;;10.82;;
27999;SDS011;15328;50.860;10.562;2022-11-20T10:04:38;18.00;;;10.38;;
27999;SDS011;15328;50.860;10.562;2022-11-20T10:09:49;19.73;;;10.80;;
27999;SDS011;15328;50.860;10.562;2022-11-20T10:15:06;22.60;;;11.80;;
27999;SDS011;15328;50.860;10.562;2022-11-20T10:26:02;12.60;;;7.35;;
27999;SDS011;15328;50.860;10.562;2022-11-20T10:48:32;16.52;;;7.00;;
27999;SDS011;15328;50.860;10.562;2022-11-20T10:53:51;26.17;;;11.57;;
27999;SDS011;15328;50.860;10.562;2022-11-20T10:59:04;18.88;;;9.18;;
27999;SDS011;15328;50.860;10.562;2022-11-20T11:04:07;17.25;;;9.68;;
27999;SDS011;15328;50.860;10.562;2022-11-20T11:09:33;14.27;;;8.15;;
27999;SDS011;15328;50.860;10.562;2022-11-20T11:14:46;11.00;;;6.65;;
27999;SDS011;15328;50.860;10.562;2022-11-20T11:25:27;11.98;;;6.75;;
27999;SDS011;15328;50.860;10.562;2022-11-20T11:30:42;13.40;;;7.53;;
27999;SDS011;15328;50.860;10.562;2022-11-20T11:36:14;15.30;;;8.20;;
27999;SDS011;15328;50.860;10.562;2022-11-20T11:41:38;15.50;;;8.93;;
27999;SDS011;15328;50.860;10.562;2022-11-20T11:52:25;18.65;;;11.13;;
27999;SDS011;15328;50.860;10.562;2022-11-20T11:57:44;19.15;;;10.32;;
27999;SDS011;15328;50.860;10.562;2022-11-20T12:08:59;18.50;;;10.50;;
27999;SDS011;15328;50.860;10.562;2022-11-20T12:14:43;16.92;;;9.20;;
27999;SDS011;15328;50.860;10.562;2022-11-20T12:19:47;24.42;;;13.38;;
27999;SDS011;15328;50.860;10.562;2022-11-20T13:02:24;15.95;;;7.78;;
27999;SDS011;15328;50.860;10.562;2022-11-20T13:07:26;15.65;;;8.73;;
27999;SDS011;15328;50.860;10.562;2022-11-20T13:17:43;19.13;;;9.85;;
27999;SDS011;15328;50.860;10.562;2022-11-20T13:23:30;16.80;;;9.05;;
27999;SDS011;15328;50.860;10.562;2022-11-20T13:34:29;15.20;;;8.27;;
27999;SDS011;15328;50.860;10.562;2022-11-20T13:39:31;13.90;;;7.30;;
27999;SDS011;15328;50.860;10.562;2022-11-20T13:44:35;16.58;;;8.60;;
27999;SDS011;15328;50.860;10.562;2022-11-20T13:49:42;14.98;;;8.13;;
27999;SDS011;15328;50.860;10.562;2022-11-20T14:00:03;16.25;;;7.80;;
27999;SDS011;15328;50.860;10.562;2022-11-20T14:05:17;14.23;;;7.80;;
27999;SDS011;15328;50.860;10.562;2022-11-20T14:10:27;14.23;;;7.20;;
27999;SDS011;15328;50.860;10.562;2022-11-20T14:15:32;15.18;;;7.93;;
27999;SDS011;15328;50.860;10.562;2022-11-20T14:20:34;15.85;;;8.13;;
27999;SDS011;15328;50.860;10.562;2022-11-20T14:25:34;15.68;;;7.88;;
27999;SDS011;15328;50.860;10.562;2022-11-20T14:30:43;12.73;;;6.90;;
27999;SDS011;15328;50.860;10.562;2022-11-20T14:35:50;15.10;;;8.07;;
27999;SDS011;15328;50.860;10.562;2022-11-20T14:40:52;16.25;;;7.90;;
27999;SDS011;15328;50.860;10.562;2022-11-20T14:46:03;13.85;;;7.50;;
27999;SDS011;15328;50.860;10.562;2022-11-20T14:51:08;14.55;;;7.82;;
27999;SDS011;15328;50.860;10.562;2022-11-20T14:56:10;13.98;;;7.07;;
27999;SDS011;15328;50.860;10.562;2022-11-20T15:01:11;14.63;;;7.32;;
27999;SDS011;15328;50.860;10.562;2022-11-20T15:06:13;12.82;;;7.65;;
27999;SDS011;15328;50.860;10.562;2022-11-20T15:11:21;13.25;;;7.53;;
27999;SDS011;15328;50.860;10.562;2022-11-20T15:16:27;12.63;;;7.32;;
27999;SDS011;15328;50.860;10.562;2022-11-20T15:21:28;15.85;;;8.07;;
27999;SDS011;15328;50.860;10.562;2022-11-20T15:26:29;20.95;;;10.68;;
27999;SDS011;15328;50.860;10.562;2022-11-20T15:31:29;21.60;;;11.57;;
27999;SDS011;15328;50.860;10.562;2022-11-20T15:36:30;19.55;;;11.25;;
27999;SDS011;15328;50.860;10.562;2022-11-20T15:41:30;16.30;;;9.30;;
27999;SDS011;15328;50.860;10.562;2022-11-20T15:46:31;19.43;;;9.60;;
27999;SDS011;15328;50.860;10.562;2022-11-20T15:51:38;31.17;;;15.57;;
27999;SDS011;15328;50.860;10.562;2022-11-20T15:56:41;32.08;;;16.25;;
27999;SDS011;15328;50.860;10.562;2022-11-20T16:01:42;30.52;;;16.13;;
27999;SDS011;15328;50.860;10.562;2022-11-20T16:06:43;40.45;;;21.00;;
27999;SDS011;15328;50.860;10.562;2022-11-20T16:11:43;34.30;;;18.92;;
27999;SDS011;15328;50.860;10.562;2022-11-20T16:16:43;33.38;;;16.73;;
27999;SDS011;15328;50.860;10.562;2022-11-20T16:21:44;31.55;;;16.70;;
27999;SDS011;15328;50.860;10.562;2022-11-20T16:26:45;27.85;;;15.77;;
27999;SDS011;15328;50.860;10.562;2022-11-20T16:31:45;46.23;;;25.07;;
27999;SDS011;15328;50.860;10.562;2022-11-20T16:36:46;40.97;;;20.77;;
27999;SDS011;15328;50.860;10.562;2022-11-20T16:41:46;36.25;;;16.70;;
27999;SDS011;15328;50.860;10.562;2022-11-20T16:46:47;29.33;;;14.40;;
27999;SDS011;15328;50.860;10.562;2022-11-20T16:51:47;25.30;;;12.65;;
27999;SDS011;15328;50.860;10.562;2022-11-20T16:56:48;21.27;;;11.70;;
27999;SDS011;15328;50.860;10.562;2022-11-20T17:01:49;18.42;;;9.45;;
27999;SDS011;15328;50.860;10.562;2022-11-20T17:06:50;18.25;;;8.88;;
27999;SDS011;15328;50.860;10.562;2022-11-20T17:11:50;17.50;;;9.20;;
27999;SDS011;15328;50.860;10.562;2022-11-20T17:16:51;17.75;;;9.48;;
27999;SDS011;15328;50.860;10.562;2022-11-20T17:21:51;19.45;;;9.50;;
27999;SDS011;15328;50.860;10.562;2022-11-20T17:26:52;15.60;;;8.63;;
27999;SDS011;15328;50.860;10.562;2022-11-20T17:31:52;14.65;;;7.85;;
27999;SDS011;15328;50.860;10.562;2022-11-20T17:36:53;17.30;;;10.00;;
27999;SDS011;15328;50.860;10.562;2022-11-20T17:41:54;18.30;;;9.80;;
27999;SDS011;15328;50.860;10.562;2022-11-20T17:47:13;18.83;;;10.00;;
27999;SDS011;15328;50.860;10.562;2022-11-20T17:52:13;18.90;;;9.90;;
27999;SDS011;15328;50.860;10.562;2022-11-20T17:57:13;18.03;;;10.33;;
27999;SDS011;15328;50.860;10.562;2022-11-20T18:02:32;20.73;;;11.30;;
27999;SDS011;15328;50.860;10.562;2022-11-20T18:07:33;18.52;;;9.63;;
27999;SDS011;15328;50.860;10.562;2022-11-20T18:12:33;17.40;;;9.70;;
27999;SDS011;15328;50.860;10.562;2022-11-20T18:17:33;17.87;;;9.87;;
27999;SDS011;15328;50.860;10.562;2022-11-20T18:22:35;16.92;;;9.00;;
27999;SDS011;15328;50.860;10.562;2022-11-20T18:27:35;18.52;;;8.98;;
27999;SDS011;15328;50.860;10.562;2022-11-20T18:32:37;17.75;;;10.02;;
27999;SDS011;15328;50.860;10.562;2022-11-20T18:37:50;16.55;;;9.65;;
27999;SDS011;15328;50.860;10.562;2022-11-20T18:42:53;13.25;;;7.93;;
27999;SDS011;15328;50.860;10.562;2022-11-20T18:48:15;12.45;;;7.05;;
27999;SDS011;15328;50.860;10.562;2022-11-20T18:53:21;11.38;;;6.00;;
27999;SDS011;15328;50.860;10.562;2022-11-20T18:58:26;11.48;;;6.68;;
27999;SDS011;15328;50.860;10.562;2022-11-20T19:03:30;9.00;;;5.22;;
27999;SDS011;15328;50.860;10.562;2022-11-20T19:08:32;9.52;;;5.45;;
27999;SDS011;15328;50.860;10.562;2022-11-20T19:13:34;11.07;;;5.75;;
27999;SDS011;15328;50.860;10.562;2022-11-20T19:18:34;8.05;;;4.78;;
27999;SDS011;15328;50.860;10.562;2022-11-20T19:23:35;10.07;;;5.15;;
27999;SDS011;15328;50.860;10.562;2022-11-20T19:28:36;8.40;;;4.97;;
27999;SDS011;15328;50.860;10.562;2022-11-20T19:33:36;6.32;;;4.30;;
27999;SDS011;15328;50.860;10.562;2022-11-20T19:38:37;6.95;;;5.03;;
27999;SDS011;15328;50.860;10.562;2022-11-20T19:43:39;7.00;;;4.22;;
27999;SDS011;15328;50.860;10.562;2022-11-20T19:48:40;6.68;;;4.00;;
27999;SDS011;15328;50.860;10.562;2022-11-20T19:53:40;8.40;;;5.07;;
27999;SDS011;15328;50.860;10.562;2022-11-20T19:58:42;8.20;;;5.32;;
27999;SDS011;15328;50.860;10.562;2022-11-20T20:03:43;7.82;;;5.20;;
27999;SDS011;15328;50.860;10.562;2022-11-20T20:08:44;8.90;;;5.15;;
27999;SDS011;15328;50.860;10.562;2022-11-20T20:13:44;7.87;;;4.77;;
27999;SDS011;15328;50.860;10.562;2022-11-20T20:18:45;10.65;;;5.63;;
27999;SDS011;15328;50.860;10.562;2022-11-20T20:23:49;8.48;;;5.15;;
27999;SDS011;15328;50.860;10.562;2022-11-20T20:28:50;7.20;;;4.65;;
27999;SDS011;15328;50.860;10.562;2022-11-20T20:33:51;5.57;;;3.33;;
27999;SDS011;15328;50.860;10.562;2022-11-20T20:38:52;4.55;;;3.08;;
27999;SDS011;15328;50.860;10.562;2022-11-20T20:43:53;5.13;;;3.35;;
27999;SDS011;15328;50.860;10.562;2022-11-20T20:49:12;3.85;;;2.55;;
27999;SDS011;15328;50.860;10.562;2022-11-20T20:54:13;3.97;;;2.60;;
27999;SDS011;15328;50.860;10.562;2022-11-20T20:59:13;3.38;;;2.08;;
27999;SDS011;15328;50.860;10.562;2022-11-20T21:04:13;3.20;;;2.10;;
27999;SDS011;15328;50.860;10.562;2022-11-20T21:09:14;3.45;;;2.10;;
27999;SDS011;15328;50.860;10.562;2022-11-20T21:14:14;2.95;;;1.73;;
27999;SDS011;15328;50.860;10.562;2022-11-20T21:19:14;1.98;;;1.40;;
27999;SDS011;15328;50.860;10.562;2022-11-20T21:24:15;2.30;;;1.60;;
27999;SDS011;15328;50.860;10.562;2022-11-20T21:29:15;2.87;;;1.90;;
27999;SDS011;15328;50.860;10.562;2022-11-20T21:34:16;2.65;;;1.65;;
27999;SDS011;15328;50.860;10.562;2022-11-20T21:39:16;4.97;;;2.70;;
27999;SDS011;15328;50.860;10.562;2022-11-20T21:44:17;3.38;;;1.90;;
27999;SDS011;15328;50.860;10.562;2022-11-20T21:49:17;3.10;;;2.10;;
27999;SDS011;15328;50.860;10.562;2022-11-20T21:54:18;1.65;;;1.40;;
27999;SDS011;15328;50.860;10.562;2022-11-20T21:59:18;2.30;;;1.40;;
27999;SDS011;15328;50.860;10.562;2022-11-20T22:04:18;2.17;;;1.40;;
27999;SDS011;15328;50.860;10.562;2022-11-20T22:09:20;1.83;;;1.10;;
27999;SDS011;15328;50.860;10.562;2022-11-20T22:14:20;1.92;;;1.10;;
27999;SDS011;15328;50.860;10.562;2022-11-20T22:19:21;1.10;;;0.88;;
27999;SDS011;15328;50.860;10.562;2022-11-20T22:24:22;1.30;;;0.90;;
27999;SDS011;15328;50.860;10.562;2022-11-20T22:29:23;1.00;;;0.80;;
27999;SDS011;15328;50.860;10.562;2022-11-20T22:34:23;1.38;;;0.95;;
27999;SDS011;15328;50.860;10.562;2022-11-20T22:39:23;1.33;;;1.05;;
27999;SDS011;15328;50.860;10.562;2022-11-20T22:44:24;1.48;;;0.98;;
27999;SDS011;15328;50.860;10.562;2022-11-20T22:49:24;1.13;;;0.70;;
27999;SDS011;15328;50.860;10.562;2022-11-20T22:54:24;1.20;;;0.77;;
27999;SDS011;15328;50.860;10.562;2022-11-20T22:59:24;0.80;;;0.60;;
27999;SDS011;15328;50.860;10.562;2022-11-20T23:04:25;0.90;;;0.70;;
27999;SDS011;15328;50.860;10.562;2022-11-20T23:09:25;0.73;;;0.60;;
27999;SDS011;15328;50.860;10.562;2022-11-20T23:14:26;0.75;;;0.50;;
27999;SDS011;15328;50.860;10.562;2022-11-20T23:19:26;0.60;;;0.47;;
27999;SDS011;15328;50.860;10.562;2022-11-20T23:24:26;0.50;;;0.50;;
27999;SDS011;15328;50.860;10.562;2022-11-20T23:29:27;0.95;;;0.60;;
27999;SDS011;15328;50.860;10.562;2022-11-20T23:34:27;0.55;;;0.50;;
27999;SDS011;15328;50.860;10.562;2022-11-20T23:45:03;1.02;;;0.75;;
27999;SDS011;15328;50.860;10.562;2022-11-20T23:50:03;1.88;;;1.20;;
27999;SDS011;15328;50.860;10.562;2022-11-20T23:55:04;2.05;;;1.48;;
